createdAt,value
2024-02-09T00:00:24.638Z,95.59
2024-02-09T00:02:51.164Z,95.29
2024-02-09T00:05:18.640Z,95.14
2024-02-09T00:07:52.166Z,94.45
2024-02-09T00:10:19.735Z,94.67
2024-02-09T00:12:49.240Z,94.57
2024-02-09T00:15:19.578Z,93.68
2024-02-09T00:17:46.319Z,93.36
2024-02-09T00:20:13.356Z,92.99
2024-02-09T00:22:40.171Z,92.84
2024-02-09T00:25:11.495Z,92.92
2024-02-09T00:27:39.079Z,91.59
2024-02-09T00:30:06.840Z,91.84
2024-02-09T00:32:34.027Z,91.55
2024-02-09T00:35:00.950Z,91.61
2024-02-09T00:37:30.436Z,91.19
2024-02-09T00:39:58.029Z,90.08
2024-02-09T00:42:24.816Z,89.92
2024-02-09T00:44:51.603Z,89.84
2024-02-09T00:47:18.066Z,88.78
2024-02-09T00:49:45.194Z,88.99
2024-02-09T00:52:12.888Z,88.54
2024-02-09T00:54:39.890Z,88.74
2024-02-09T00:57:06.589Z,88.83
2024-02-09T00:59:34.831Z,88.74
2024-02-09T01:02:05.727Z,88.46
2024-02-09T01:04:35.385Z,89.22
2024-02-09T01:07:04.947Z,88.84
2024-02-09T01:09:34.830Z,89.04
2024-02-09T01:12:06.091Z,89.04
2024-02-09T01:14:51.262Z,89.31
2024-02-09T01:17:36.071Z,89.82
2024-02-09T01:20:20.822Z,89.44
2024-02-09T01:23:05.615Z,89.93
2024-02-09T01:25:50.447Z,89.74
2024-02-09T01:28:35.402Z,90.35
2024-02-09T01:31:20.301Z,90.27
2024-02-09T01:34:05.338Z,90.13
2024-02-09T01:36:50.498Z,90.50
2024-02-09T01:39:35.336Z,90.47
2024-02-09T01:42:20.103Z,90.76
2024-02-09T01:45:05.063Z,90.97
2024-02-09T01:47:49.806Z,91.65
2024-02-09T01:50:34.609Z,92.07
2024-02-09T01:53:19.399Z,92.67
2024-02-09T01:56:04.689Z,92.62
2024-02-09T01:58:50.084Z,93.36
2024-02-09T02:01:34.995Z,93.99
2024-02-09T02:04:20.133Z,93.72
2024-02-09T02:07:05.017Z,93.33
2024-02-09T02:09:49.951Z,93.43
2024-02-09T02:12:34.853Z,94.02
2024-02-09T02:15:20.187Z,93.85
2024-02-09T02:18:05.123Z,93.53
2024-02-09T02:20:50.451Z,93.66
2024-02-09T02:23:45.290Z,93.70
2024-02-09T02:26:30.611Z,94.03
2024-02-09T02:29:15.467Z,93.97
2024-02-09T02:32:00.787Z,93.82
2024-02-09T02:34:45.740Z,94.98
2024-02-09T02:37:30.473Z,95.16
2024-02-09T02:40:15.440Z,95.47
2024-02-09T02:42:41.802Z,95.28
2024-02-09T02:45:13.178Z,96.05
2024-02-09T02:47:41.482Z,95.94
2024-02-09T02:50:27.746Z,96.44
2024-02-09T02:53:12.575Z,97.45
2024-02-09T02:55:57.468Z,97.21
2024-02-09T02:58:42.355Z,97.49
2024-02-09T03:01:27.207Z,98.26
2024-02-09T03:04:12.582Z,98.73
2024-02-09T03:06:54.152Z,99.57
2024-02-09T03:09:25.292Z,100.00
2024-02-09T03:11:51.723Z,100.00
2024-02-09T03:14:18.067Z,100.00
2024-02-09T03:16:46.367Z,100.00
2024-02-09T03:19:16.476Z,100.00
2024-02-09T03:21:43.162Z,100.00
2024-02-09T03:24:09.649Z,100.00
2024-02-09T03:26:35.970Z,100.00
2024-02-09T03:29:02.323Z,100.00
2024-02-09T03:31:31.741Z,100.00
2024-02-09T03:33:58.880Z,100.00
2024-02-09T03:36:25.414Z,100.00
2024-02-09T03:38:51.790Z,100.00
2024-02-09T03:41:18.222Z,100.00
2024-02-09T03:43:44.562Z,100.00
2024-02-09T03:46:11.782Z,100.00
2024-02-09T03:48:38.273Z,100.00
2024-02-09T03:51:05.207Z,100.00
2024-02-09T03:53:34.990Z,100.00
2024-02-09T03:56:01.672Z,100.00
2024-02-09T03:58:28.225Z,100.00
2024-02-09T04:00:54.599Z,100.00
2024-02-09T04:03:20.986Z,100.00
2024-02-09T04:05:47.629Z,100.00
2024-02-09T04:08:14.043Z,100.00
2024-02-09T04:10:44.094Z,100.00
2024-02-09T04:13:13.294Z,100.00
2024-02-09T04:15:39.897Z,100.00
2024-02-09T04:18:07.680Z,100.00
2024-02-09T04:20:34.226Z,100.00
2024-02-09T04:23:01.533Z,100.00
2024-02-09T04:25:28.232Z,100.00
2024-02-09T04:27:54.735Z,100.00
2024-02-09T04:30:22.759Z,100.00
2024-02-09T04:32:49.162Z,100.00
2024-02-09T04:35:16.878Z,100.00
2024-02-09T04:37:43.363Z,100.00
2024-02-09T04:40:10.259Z,100.00
2024-02-09T04:42:36.640Z,100.00
2024-02-09T04:45:03.117Z,100.00
2024-02-09T04:47:29.593Z,100.00
2024-02-09T04:49:56.020Z,100.00
2024-02-09T04:52:23.221Z,100.00
2024-02-09T04:54:49.571Z,100.00
2024-02-09T04:57:15.940Z,100.00
2024-02-09T04:59:42.252Z,100.00
2024-02-09T05:02:12.031Z,100.00
2024-02-09T05:04:38.447Z,100.00
2024-02-09T05:07:05.979Z,100.00
2024-02-09T05:09:32.447Z,100.00
2024-02-09T05:12:00.278Z,100.00
2024-02-09T05:14:26.786Z,100.00
2024-02-09T05:16:53.442Z,100.00
2024-02-09T05:19:20.331Z,100.00
2024-02-09T05:21:46.748Z,100.00
2024-02-09T05:24:13.765Z,100.00
2024-02-09T05:26:40.249Z,100.00
2024-02-09T05:29:06.621Z,100.00
2024-02-09T05:31:33.102Z,100.00
2024-02-09T05:33:59.766Z,100.00
2024-02-09T05:36:27.024Z,100.00
2024-02-09T05:38:55.311Z,100.00
2024-02-09T05:41:22.404Z,100.00
2024-02-09T05:43:50.748Z,100.00
2024-02-09T05:46:17.645Z,100.00
2024-02-09T05:48:45.427Z,100.00
2024-02-09T05:51:20.121Z,100.00
2024-02-09T05:53:50.167Z,100.00
2024-02-09T05:56:27.065Z,100.00
2024-02-09T05:58:53.910Z,100.00
2024-02-09T06:01:21.421Z,100.00
2024-02-09T06:03:48.665Z,100.00
2024-02-09T06:06:19.873Z,100.00
2024-02-09T06:08:47.482Z,100.00
2024-02-09T06:11:15.024Z,100.00
2024-02-09T06:13:46.045Z,100.00
2024-02-09T06:16:16.930Z,100.00
2024-02-09T06:18:46.940Z,100.00
2024-02-09T06:21:20.567Z,100.00
2024-02-09T06:23:47.759Z,100.00
2024-02-09T06:26:18.003Z,100.00
2024-02-09T06:28:48.291Z,100.00
2024-02-09T06:31:27.541Z,100.00
2024-02-09T06:33:56.147Z,100.00
2024-02-09T06:36:23.235Z,100.00
2024-02-09T06:38:50.399Z,100.00
2024-02-09T06:41:16.791Z,100.00
2024-02-09T06:43:43.199Z,100.00
2024-02-09T06:46:10.213Z,100.00
2024-02-09T06:48:36.642Z,100.00
2024-02-09T06:51:06.294Z,100.00
2024-02-09T06:53:32.883Z,100.00
2024-02-09T06:56:00.915Z,100.00
2024-02-09T06:58:27.419Z,100.00
2024-02-09T07:00:53.933Z,100.00
2024-02-09T07:03:22.863Z,100.00
2024-02-09T07:05:53.045Z,100.00
2024-02-09T07:08:27.569Z,100.00
2024-02-09T07:10:53.981Z,100.00
2024-02-09T07:13:20.362Z,100.00
2024-02-09T07:15:46.711Z,100.00
2024-02-09T07:18:13.121Z,100.00
2024-02-09T07:20:40.747Z,100.00
2024-02-09T07:23:07.152Z,100.00
2024-02-09T07:25:34.177Z,100.00
2024-02-09T07:28:00.675Z,100.00
2024-02-09T07:30:27.763Z,100.00
2024-02-09T07:32:54.224Z,100.00
2024-02-09T07:35:20.744Z,100.00
2024-02-09T07:37:47.197Z,100.00
2024-02-09T07:40:18.142Z,100.00
2024-02-09T07:42:44.638Z,100.00
2024-02-09T07:45:13.839Z,100.00
2024-02-09T07:47:40.309Z,100.00
2024-02-09T07:50:06.849Z,100.00
2024-02-09T07:52:36.026Z,100.00
2024-02-09T07:55:03.285Z,100.00
2024-02-09T07:57:30.481Z,100.00
2024-02-09T07:59:56.813Z,100.00
2024-02-09T08:02:23.220Z,99.24
2024-02-09T08:04:49.831Z,99.41
2024-02-09T08:07:20.680Z,99.27
2024-02-09T08:09:47.958Z,99.21
2024-02-09T08:12:16.474Z,98.38
2024-02-09T08:14:44.081Z,98.29
2024-02-09T08:17:10.530Z,98.11
2024-02-09T08:19:36.940Z,97.31
2024-02-09T08:22:03.483Z,97.14
2024-02-09T08:24:29.832Z,97.09
2024-02-09T08:26:56.216Z,97.26
2024-02-09T08:29:22.925Z,96.59
2024-02-09T08:31:49.304Z,95.56
2024-02-09T08:34:16.208Z,95.38
2024-02-09T08:36:42.649Z,93.88
2024-02-09T08:39:09.082Z,93.60
2024-02-09T08:41:35.491Z,92.59
2024-02-09T08:44:02.882Z,92.61
2024-02-09T08:46:29.473Z,91.83
2024-02-09T08:48:57.377Z,91.64
2024-02-09T08:51:23.863Z,91.84
2024-02-09T08:53:50.300Z,90.84
2024-02-09T08:56:16.795Z,89.60
2024-02-09T08:58:43.499Z,87.93
2024-02-09T09:01:10.116Z,88.97
2024-02-09T09:03:36.841Z,87.38
2024-02-09T09:06:04.475Z,87.17
2024-02-09T09:08:31.736Z,86.62
2024-02-09T09:10:58.204Z,86.96
2024-02-09T09:13:25.740Z,86.02
2024-02-09T09:15:52.224Z,85.54
2024-02-09T09:18:18.660Z,84.87
2024-02-09T09:20:46.033Z,84.15
2024-02-09T09:23:12.461Z,83.02
2024-02-09T09:25:38.838Z,83.83
2024-02-09T09:28:05.562Z,82.62
2024-02-09T09:30:32.078Z,83.38
2024-02-09T09:32:58.687Z,82.83
2024-02-09T09:35:25.622Z,83.18
2024-02-09T09:37:52.278Z,83.36
2024-02-09T09:40:19.998Z,84.10
2024-02-09T09:42:46.511Z,83.47
2024-02-09T09:45:13.017Z,83.60
2024-02-09T09:47:42.048Z,83.83
2024-02-09T09:50:11.275Z,83.05
2024-02-09T09:52:45.673Z,82.10
2024-02-09T09:55:13.483Z,81.04
2024-02-09T09:57:39.872Z,82.17
2024-02-09T10:00:07.943Z,79.80
2024-02-09T10:02:35.638Z,78.37
2024-02-09T10:05:02.466Z,77.72
2024-02-09T10:07:30.410Z,76.69
2024-02-09T10:09:57.777Z,77.27
2024-02-09T10:12:25.443Z,77.44
2024-02-09T10:14:51.937Z,76.40
2024-02-09T10:17:18.347Z,77.04
2024-02-09T10:19:44.876Z,77.14
2024-02-09T10:22:16.590Z,77.34
2024-02-09T10:24:49.916Z,78.37
2024-02-09T10:27:16.361Z,78.67
2024-02-09T10:29:43.147Z,79.37
2024-02-09T10:32:09.527Z,80.02
2024-02-09T10:34:38.939Z,79.84
2024-02-09T10:37:10.952Z,80.01
2024-02-09T10:39:44.311Z,79.33
2024-02-09T10:42:15.228Z,79.16
2024-02-09T10:44:44.976Z,78.58
2024-02-09T10:47:12.596Z,79.21
2024-02-09T10:49:45.019Z,79.90
2024-02-09T10:52:14.936Z,78.89
2024-02-09T10:54:51.666Z,79.01
2024-02-09T10:57:20.469Z,80.19
2024-02-09T10:59:48.311Z,79.52
2024-02-09T11:02:15.246Z,78.46
2024-02-09T11:04:42.460Z,78.46
2024-02-09T11:07:10.051Z,78.04
2024-02-09T11:09:38.213Z,77.74
2024-02-09T11:12:07.954Z,77.40
2024-02-09T11:14:35.240Z,75.25
2024-02-09T11:17:07.906Z,75.75
2024-02-09T11:19:42.054Z,75.52
2024-02-09T11:22:10.282Z,76.11
2024-02-09T11:24:37.321Z,76.03
2024-02-09T11:27:05.963Z,76.54
2024-02-09T11:29:33.739Z,76.90
2024-02-09T11:32:03.600Z,75.55
2024-02-09T11:34:31.734Z,75.82
2024-02-09T11:37:02.373Z,75.83
2024-02-09T11:39:31.544Z,76.39
2024-02-09T11:41:58.469Z,75.65
2024-02-09T11:44:25.171Z,75.64
2024-02-09T11:46:54.984Z,75.85
2024-02-09T11:49:22.696Z,74.66
2024-02-09T11:51:52.172Z,75.63
2024-02-09T11:54:22.372Z,75.37
2024-02-09T11:56:51.059Z,75.81
2024-02-09T11:59:18.458Z,75.45
2024-02-09T12:01:44.999Z,73.97
2024-02-09T12:04:12.089Z,74.91
2024-02-09T12:06:38.615Z,74.67
2024-02-09T12:09:05.588Z,73.60
2024-02-09T12:11:32.102Z,74.72
2024-02-09T12:13:58.605Z,74.90
2024-02-09T12:16:25.188Z,74.50
2024-02-09T12:18:56.319Z,75.10
2024-02-09T12:21:22.782Z,75.17
2024-02-09T12:23:51.324Z,75.41
2024-02-09T12:26:19.501Z,75.63
2024-02-09T12:28:47.190Z,76.01
2024-02-09T12:31:17.906Z,76.21
2024-02-09T12:33:46.470Z,76.24
2024-02-09T12:36:21.445Z,76.38
2024-02-09T12:38:59.401Z,75.47
2024-02-09T12:41:26.282Z,75.28
2024-02-09T12:44:03.549Z,74.34
2024-02-09T12:46:30.893Z,74.92
2024-02-09T12:48:57.793Z,73.67
2024-02-09T12:51:24.966Z,74.46
2024-02-09T12:53:51.704Z,74.32
2024-02-09T12:56:18.553Z,74.28
2024-02-09T12:58:45.589Z,74.25
2024-02-09T13:01:12.794Z,73.96
2024-02-09T13:03:41.409Z,74.01
2024-02-09T13:06:08.709Z,74.84
2024-02-09T13:08:37.921Z,75.19
2024-02-09T13:11:07.808Z,75.03
2024-02-09T13:13:36.492Z,75.42
2024-02-09T13:16:03.813Z,75.69
2024-02-09T13:18:32.261Z,74.72
2024-02-09T13:20:59.580Z,75.35
2024-02-09T13:23:27.725Z,76.26
2024-02-09T13:25:54.257Z,76.45
2024-02-09T13:28:20.732Z,75.25
2024-02-09T13:30:47.379Z,75.40
2024-02-09T13:33:13.920Z,75.19
2024-02-09T13:35:41.580Z,75.30
2024-02-09T13:38:07.904Z,74.94
2024-02-09T13:40:34.443Z,74.36
2024-02-09T13:43:01.260Z,75.26
2024-02-09T13:45:27.695Z,75.50
2024-02-09T13:47:54.918Z,75.59
2024-02-09T13:50:25.387Z,75.62
2024-02-09T13:52:54.626Z,75.93
2024-02-09T13:55:23.936Z,75.22
2024-02-09T13:57:57.680Z,76.19
2024-02-09T14:00:25.597Z,76.48
2024-02-09T14:02:52.159Z,76.30
2024-02-09T14:05:19.460Z,77.29
2024-02-09T14:07:47.941Z,77.54
2024-02-09T14:10:15.314Z,78.12
2024-02-09T14:12:43.385Z,77.99
2024-02-09T14:15:11.769Z,77.01
2024-02-09T14:17:39.172Z,77.45
2024-02-09T14:20:06.777Z,77.95
2024-02-09T14:22:33.808Z,77.15
2024-02-09T14:25:00.380Z,77.36
2024-02-09T14:27:26.965Z,77.02
2024-02-09T14:29:54.368Z,76.93
2024-02-09T14:32:22.360Z,77.31
2024-02-09T14:34:48.964Z,77.00
2024-02-09T14:37:15.340Z,77.48
2024-02-09T14:39:46.213Z,77.32
2024-02-09T14:42:13.112Z,77.40
2024-02-09T14:44:44.541Z,77.09
2024-02-09T14:47:11.550Z,76.22
2024-02-09T14:49:38.693Z,75.87
2024-02-09T14:52:08.741Z,75.82
2024-02-09T14:54:37.271Z,75.56
2024-02-09T14:57:05.629Z,76.17
2024-02-09T14:59:32.292Z,76.62
2024-02-09T15:01:58.710Z,76.23
2024-02-09T15:04:25.776Z,75.84
2024-02-09T15:06:52.896Z,75.33
2024-02-09T15:09:20.098Z,75.58
2024-02-09T15:11:46.567Z,75.86
2024-02-09T15:14:13.240Z,75.46
2024-02-09T15:16:42.414Z,75.80
2024-02-09T15:19:13.668Z,76.32
2024-02-09T15:21:49.394Z,75.56
2024-02-09T15:24:15.889Z,75.55
2024-02-09T15:26:43.873Z,75.57
2024-02-09T15:29:10.576Z,75.52
2024-02-09T15:31:38.779Z,74.84
2024-02-09T15:34:05.331Z,74.61
2024-02-09T15:36:33.385Z,73.59
2024-02-09T15:38:59.870Z,74.06
2024-02-09T15:41:26.526Z,73.95
2024-02-09T15:43:53.352Z,73.50
2024-02-09T15:46:20.669Z,73.61
2024-02-09T15:48:51.192Z,73.58
2024-02-09T15:51:24.928Z,73.66
2024-02-09T15:53:58.275Z,73.55
2024-02-09T15:56:26.494Z,73.26
2024-02-09T15:58:53.372Z,73.54
2024-02-09T16:01:20.407Z,73.97
2024-02-09T16:03:51.913Z,73.57
2024-02-09T16:06:18.945Z,74.88
2024-02-09T16:08:45.325Z,74.49
2024-02-09T16:11:11.797Z,74.70
2024-02-09T16:13:39.209Z,75.35
2024-02-09T16:16:08.619Z,75.35
2024-02-09T16:18:36.732Z,75.41
2024-02-09T16:21:03.290Z,75.54
2024-02-09T16:23:29.732Z,76.26
2024-02-09T16:26:02.286Z,76.51
2024-02-09T16:28:33.611Z,76.95
2024-02-09T16:31:01.069Z,77.24
2024-02-09T16:33:28.210Z,77.99
2024-02-09T16:35:54.779Z,77.94
2024-02-09T16:38:21.247Z,78.43
2024-02-09T16:40:48.553Z,79.08
2024-02-09T16:43:16.050Z,78.81
2024-02-09T16:45:43.933Z,79.16
2024-02-09T16:48:10.890Z,78.90
2024-02-09T16:50:37.805Z,80.45
2024-02-09T16:53:04.406Z,80.68
2024-02-09T16:55:30.812Z,81.06
2024-02-09T16:57:57.166Z,81.65
2024-02-09T17:00:23.517Z,81.34
2024-02-09T17:02:49.891Z,82.74
2024-02-09T17:05:16.543Z,83.26
2024-02-09T17:07:43.151Z,84.23
2024-02-09T17:10:12.324Z,85.04
2024-02-09T17:12:39.814Z,84.20
2024-02-09T17:15:08.858Z,84.59
2024-02-09T17:17:35.938Z,85.65
2024-02-09T17:20:03.677Z,86.56
2024-02-09T17:22:34.634Z,86.25
2024-02-09T17:25:01.056Z,87.23
2024-02-09T17:27:27.563Z,87.30
2024-02-09T17:29:54.284Z,87.03
2024-02-09T17:32:20.588Z,87.39
2024-02-09T17:34:46.993Z,86.75
2024-02-09T17:37:14.049Z,86.97
2024-02-09T17:39:41.046Z,87.96
2024-02-09T17:42:07.626Z,88.75
2024-02-09T17:44:34.452Z,88.69
2024-02-09T17:47:04.306Z,89.22
2024-02-09T17:49:32.750Z,89.66
2024-02-09T17:51:59.566Z,90.31
2024-02-09T17:54:25.961Z,90.67
2024-02-09T17:56:52.336Z,91.06
2024-02-09T17:59:18.788Z,92.22
2024-02-09T18:01:45.496Z,92.71
2024-02-09T18:04:12.064Z,93.19
2024-02-09T18:06:39.654Z,95.09
2024-02-09T18:09:09.633Z,95.50
2024-02-09T18:11:37.355Z,95.56
2024-02-09T18:14:03.757Z,96.78
2024-02-09T18:16:30.172Z,96.52
2024-02-09T18:18:56.740Z,97.01
2024-02-09T18:21:23.057Z,97.03
2024-02-09T18:23:49.523Z,97.54
2024-02-09T18:26:17.100Z,98.65
2024-02-09T18:28:45.049Z,98.86
2024-02-09T18:31:14.990Z,100.00
2024-02-09T18:33:43.201Z,100.00
2024-02-09T18:36:09.756Z,100.00
2024-02-09T18:38:37.416Z,100.00
2024-02-09T18:41:04.733Z,100.00
2024-02-09T18:43:33.993Z,100.00
2024-02-09T18:46:00.775Z,100.00
2024-02-09T18:48:30.166Z,100.00
2024-02-09T18:50:56.585Z,100.00
2024-02-09T18:53:23.056Z,100.00
2024-02-09T18:55:49.519Z,100.00
2024-02-09T18:58:16.050Z,100.00
2024-02-09T19:00:43.460Z,100.00
2024-02-09T19:03:10.076Z,100.00
2024-02-09T19:05:36.590Z,100.00
2024-02-09T19:08:04.257Z,100.00
2024-02-09T19:10:34.485Z,100.00
2024-02-09T19:13:02.301Z,100.00
2024-02-09T19:15:29.510Z,100.00
2024-02-09T19:17:55.951Z,100.00
2024-02-09T19:20:22.335Z,100.00
2024-02-09T19:22:49.271Z,100.00
2024-02-09T19:25:19.807Z,100.00
2024-02-09T19:27:47.601Z,100.00
2024-02-09T19:30:17.607Z,100.00
2024-02-09T19:32:45.854Z,100.00
2024-02-09T19:35:13.841Z,100.00
2024-02-09T19:37:40.368Z,100.00
2024-02-09T19:40:07.728Z,100.00
2024-02-09T19:42:34.800Z,100.00
2024-02-09T19:45:02.114Z,100.00
2024-02-09T19:47:31.005Z,100.00
2024-02-09T19:49:57.486Z,100.00
2024-02-09T19:52:23.880Z,100.00
2024-02-09T19:54:50.431Z,100.00
2024-02-09T19:57:16.933Z,100.00
2024-02-09T19:59:43.382Z,100.00
2024-02-09T20:02:12.125Z,100.00
2024-02-09T20:04:40.493Z,100.00
2024-02-09T20:07:07.555Z,100.00
2024-02-09T20:09:37.090Z,100.00
2024-02-09T20:12:04.378Z,100.00
2024-02-09T20:14:32.000Z,100.00
2024-02-09T20:16:59.041Z,100.00
2024-02-09T20:19:26.318Z,100.00
2024-02-09T20:21:54.247Z,100.00
2024-02-09T20:24:20.703Z,100.00
2024-02-09T20:26:48.517Z,100.00
2024-02-09T20:29:17.215Z,100.00
2024-02-09T20:31:43.943Z,100.00
2024-02-09T20:34:10.338Z,100.00
2024-02-09T20:36:37.480Z,100.00
2024-02-09T20:39:04.265Z,100.00
2024-02-09T20:41:33.135Z,100.00
2024-02-09T20:44:00.428Z,100.00
2024-02-09T20:46:27.551Z,100.00
2024-02-09T20:48:56.994Z,100.00
2024-02-09T20:51:23.545Z,100.00
2024-02-09T20:53:50.496Z,100.00
2024-02-09T20:56:17.858Z,100.00
2024-02-09T20:58:45.376Z,100.00
2024-02-09T21:01:13.119Z,100.00
2024-02-09T21:03:40.635Z,100.00
2024-02-09T21:06:08.235Z,100.00
2024-02-09T21:08:35.522Z,100.00
2024-02-09T21:11:02.605Z,100.00
2024-02-09T21:13:29.922Z,100.00
2024-02-09T21:15:57.989Z,100.00
2024-02-09T21:18:28.639Z,100.00
2024-02-09T21:20:59.097Z,100.00
2024-02-09T21:23:32.808Z,100.00
2024-02-09T21:26:00.578Z,100.00
2024-02-09T21:28:29.359Z,100.00
2024-02-09T21:30:55.934Z,100.00
2024-02-09T21:33:23.738Z,100.00
2024-02-09T21:35:54.583Z,100.00
2024-02-09T21:38:21.267Z,100.00
2024-02-09T21:40:48.546Z,100.00
2024-02-09T21:43:17.079Z,100.00
2024-02-09T21:45:48.235Z,100.00
2024-02-09T21:48:18.816Z,100.00
2024-02-09T21:50:47.937Z,100.00
2024-02-09T21:53:14.797Z,100.00
2024-02-09T21:55:41.225Z,100.00
2024-02-09T21:58:09.149Z,100.00
2024-02-09T22:00:36.756Z,100.00
2024-02-09T22:03:03.372Z,100.00
2024-02-09T22:05:31.448Z,100.00
2024-02-09T22:07:58.002Z,100.00
2024-02-09T22:10:27.140Z,100.00
2024-02-09T22:12:55.372Z,100.00
2024-02-09T22:15:25.557Z,100.00
2024-02-09T22:17:54.549Z,100.00
2024-02-09T22:20:21.524Z,100.00
2024-02-09T22:22:48.246Z,100.00
2024-02-09T22:25:15.894Z,100.00
2024-02-09T22:27:43.473Z,100.00
2024-02-09T22:30:10.436Z,100.00
2024-02-09T22:32:41.014Z,100.00
2024-02-09T22:35:13.122Z,100.00
2024-02-09T22:37:40.506Z,100.00
2024-02-09T22:40:20.701Z,100.00
2024-02-09T22:42:49.739Z,100.00
2024-02-09T22:45:16.216Z,100.00
2024-02-09T22:47:42.911Z,100.00
2024-02-09T22:50:09.977Z,100.00
2024-02-09T22:52:37.145Z,100.00
2024-02-09T22:55:04.049Z,100.00
2024-02-09T22:57:30.661Z,100.00
2024-02-09T22:59:57.773Z,100.00
2024-02-09T23:02:24.131Z,100.00
2024-02-09T23:04:53.850Z,100.00
2024-02-09T23:07:21.862Z,100.00
2024-02-09T23:09:48.245Z,100.00
2024-02-09T23:12:17.719Z,100.00
2024-02-09T23:14:45.319Z,100.00
2024-02-09T23:17:11.753Z,100.00
2024-02-09T23:19:38.803Z,100.00
2024-02-09T23:22:05.845Z,100.00
2024-02-09T23:24:32.176Z,100.00
2024-02-09T23:26:58.544Z,100.00
2024-02-09T23:29:25.606Z,100.00
2024-02-09T23:31:53.492Z,100.00
2024-02-09T23:34:21.088Z,100.00
2024-02-09T23:36:48.839Z,100.00
2024-02-09T23:39:16.285Z,100.00
2024-02-09T23:41:42.776Z,100.00
2024-02-09T23:44:09.225Z,100.00
2024-02-09T23:46:36.142Z,100.00
2024-02-09T23:49:02.915Z,100.00
2024-02-09T23:51:29.413Z,100.00
2024-02-09T23:53:55.769Z,100.00
2024-02-09T23:56:22.833Z,100.00
2024-02-09T23:58:51.696Z,100.00
